createdAt,value
2019-02-19T00:02:12.766Z,47.95
2019-02-19T00:04:43.879Z,48.00
2019-02-19T00:07:15.090Z,48.04
2019-02-19T00:09:46.316Z,47.83
2019-02-19T00:12:17.998Z,47.69
2019-02-19T00:14:49.250Z,47.57
2019-02-19T00:17:20.400Z,47.49
2019-02-19T00:19:51.651Z,47.46
2019-02-19T00:22:22.924Z,47.41
2019-02-19T00:24:54.131Z,47.41
2019-02-19T00:27:25.458Z,47.37
2019-02-19T00:29:56.715Z,47.39
2019-02-19T00:32:27.913Z,47.34
2019-02-19T00:34:59.067Z,47.41
2019-02-19T00:37:30.320Z,47.32
2019-02-19T00:40:01.497Z,47.24
2019-02-19T00:42:33.791Z,47.23
2019-02-19T00:45:05.965Z,47.19
2019-02-19T00:47:37.227Z,47.18
2019-02-19T00:50:09.271Z,47.11
2019-02-19T00:52:40.473Z,47.08
2019-02-19T00:55:11.923Z,47.05
2019-02-19T00:57:43.178Z,46.99
2019-02-19T01:00:14.706Z,46.98
2019-02-19T01:02:45.899Z,46.97
2019-02-19T01:05:17.084Z,46.94
2019-02-19T01:07:49.032Z,46.98
2019-02-19T01:10:20.391Z,46.94
2019-02-19T01:12:51.556Z,46.88
2019-02-19T01:15:25.433Z,46.84
2019-02-19T01:17:55.729Z,46.80
2019-02-19T01:20:28.088Z,46.73
2019-02-19T01:22:59.347Z,46.73
2019-02-19T01:25:30.600Z,46.66
2019-02-19T01:28:01.809Z,46.63
2019-02-19T01:30:32.992Z,46.63
2019-02-19T01:33:04.350Z,46.65
2019-02-19T01:35:35.560Z,46.67
2019-02-19T01:38:06.832Z,46.69
2019-02-19T01:40:38.182Z,46.65
2019-02-19T01:43:09.402Z,46.70
2019-02-19T01:45:40.585Z,46.67
2019-02-19T01:48:11.776Z,46.61
2019-02-19T01:50:42.986Z,46.58
2019-02-19T01:53:14.382Z,46.57
2019-02-19T01:55:45.567Z,46.57
2019-02-19T01:58:17.723Z,46.56
2019-02-19T02:00:49.090Z,46.54
2019-02-19T02:03:20.403Z,46.53
2019-02-19T02:05:51.575Z,46.53
2019-02-19T02:08:22.899Z,46.56
2019-02-19T02:10:54.041Z,46.60
2019-02-19T02:13:25.364Z,46.58
2019-02-19T02:15:56.669Z,46.73
2019-02-19T02:18:27.864Z,46.75
2019-02-19T02:20:59.022Z,46.93
2019-02-19T02:23:30.185Z,46.95
2019-02-19T02:26:01.499Z,46.99
2019-02-19T02:28:32.761Z,47.06
2019-02-19T02:31:04.195Z,47.06
2019-02-19T02:33:35.477Z,47.10
2019-02-19T02:36:06.659Z,47.09
2019-02-19T02:38:37.968Z,47.13
2019-02-19T02:41:09.157Z,47.10
2019-02-19T02:43:40.445Z,47.16
2019-02-19T02:46:11.630Z,47.13
2019-02-19T02:48:44.110Z,47.20
2019-02-19T02:51:15.294Z,47.15
2019-02-19T02:53:46.538Z,47.15
2019-02-19T02:56:17.725Z,47.27
2019-02-19T02:58:48.945Z,47.15
2019-02-19T03:01:20.193Z,47.28
2019-02-19T03:03:52.683Z,47.28
2019-02-19T03:06:42.799Z,47.27
2019-02-19T03:09:14.229Z,47.30
2019-02-19T03:11:45.395Z,47.42
2019-02-19T03:14:16.651Z,47.62
2019-02-19T03:16:47.853Z,47.73
2019-02-19T03:19:19.064Z,47.66
2019-02-19T03:21:50.334Z,47.75
2019-02-19T03:24:21.558Z,47.96
2019-02-19T03:26:52.733Z,47.86
2019-02-19T03:29:23.927Z,47.81
2019-02-19T03:31:55.116Z,47.73
2019-02-19T03:34:26.297Z,47.71
2019-02-19T03:36:57.444Z,47.61
2019-02-19T03:39:28.619Z,47.35
2019-02-19T03:41:59.821Z,47.39
2019-02-19T03:44:31.016Z,47.34
2019-02-19T03:47:02.341Z,47.39
2019-02-19T03:49:34.689Z,47.27
2019-02-19T03:52:05.848Z,47.17
2019-02-19T03:54:37.369Z,47.08
2019-02-19T03:57:08.725Z,47.01
2019-02-19T03:59:40.053Z,47.01
2019-02-19T04:02:11.247Z,46.97
2019-02-19T04:04:42.475Z,46.97
2019-02-19T04:07:13.776Z,46.90
2019-02-19T04:09:45.166Z,46.98
2019-02-19T04:12:16.422Z,46.92
2019-02-19T04:14:47.647Z,47.04
2019-02-19T04:17:18.940Z,46.97
2019-02-19T04:19:50.478Z,47.00
2019-02-19T04:22:21.738Z,46.91
2019-02-19T04:24:52.904Z,46.93
2019-02-19T04:27:24.120Z,46.92
2019-02-19T04:29:55.343Z,46.99
2019-02-19T04:32:26.536Z,47.09
2019-02-19T04:34:57.808Z,47.18
2019-02-19T04:37:29.990Z,47.27
2019-02-19T04:40:01.399Z,47.29
2019-02-19T04:42:32.583Z,47.36
2019-02-19T04:45:03.873Z,47.43
2019-02-19T04:47:35.085Z,47.47
2019-02-19T04:50:06.918Z,47.50
2019-02-19T04:52:38.110Z,47.54
2019-02-19T04:55:09.303Z,47.61
2019-02-19T04:57:40.507Z,47.62
2019-02-19T05:00:12.600Z,47.67
2019-02-19T05:02:43.840Z,47.74
2019-02-19T05:05:15.043Z,47.74
2019-02-19T05:07:46.241Z,47.94
2019-02-19T05:10:17.430Z,47.95
2019-02-19T05:12:48.608Z,47.91
2019-02-19T05:15:19.988Z,47.99
2019-02-19T05:17:51.221Z,48.08
2019-02-19T05:20:22.425Z,48.18
2019-02-19T05:22:53.598Z,48.30
2019-02-19T05:25:24.839Z,48.46
2019-02-19T05:27:56.098Z,48.69
2019-02-19T05:30:27.436Z,49.04
2019-02-19T05:32:58.708Z,48.92
2019-02-19T05:35:29.944Z,48.88
2019-02-19T05:38:01.167Z,48.80
2019-02-19T05:40:32.363Z,48.76
2019-02-19T05:43:03.595Z,48.66
2019-02-19T05:45:34.822Z,48.72
2019-02-19T05:48:06.025Z,48.92
2019-02-19T05:50:37.299Z,48.78
2019-02-19T05:53:08.612Z,48.76
2019-02-19T05:55:39.906Z,48.83
2019-02-19T05:58:11.224Z,49.09
2019-02-19T06:00:42.486Z,48.97
2019-02-19T06:03:13.763Z,48.99
2019-02-19T06:05:45.103Z,48.94
2019-02-19T06:08:16.362Z,48.87
2019-02-19T06:10:47.572Z,49.06
2019-02-19T06:13:18.876Z,49.15
2019-02-19T06:15:50.069Z,49.03
2019-02-19T06:18:21.308Z,49.06
2019-02-19T06:20:52.494Z,49.35
2019-02-19T06:23:23.662Z,49.41
2019-02-19T06:25:54.925Z,49.56
2019-02-19T06:28:26.169Z,49.70
2019-02-19T06:30:57.392Z,49.72
2019-02-19T06:33:28.628Z,50.31
2019-02-19T06:35:59.768Z,50.63
2019-02-19T06:38:31.050Z,50.49
2019-02-19T06:41:02.230Z,50.35
2019-02-19T06:43:34.399Z,50.53
2019-02-19T06:46:05.614Z,50.42
2019-02-19T06:48:36.862Z,50.75
2019-02-19T06:51:08.055Z,50.63
2019-02-19T06:53:39.280Z,50.71
2019-02-19T06:56:10.554Z,50.58
2019-02-19T06:58:41.789Z,50.50
2019-02-19T07:01:13.199Z,50.54
2019-02-19T07:03:54.893Z,50.57
2019-02-19T07:06:26.100Z,50.53
2019-02-19T07:08:57.350Z,50.52
2019-02-19T07:11:28.748Z,50.63
2019-02-19T07:13:59.992Z,50.66
2019-02-19T07:16:31.234Z,50.82
2019-02-19T07:19:02.486Z,50.91
2019-02-19T07:21:33.724Z,50.89
2019-02-19T07:24:04.963Z,50.83
2019-02-19T07:26:36.116Z,50.50
2019-02-19T07:29:07.395Z,50.75
2019-02-19T07:31:38.573Z,50.54
2019-02-19T07:34:09.794Z,50.46
2019-02-19T07:36:40.955Z,50.48
2019-02-19T07:39:12.204Z,50.48
2019-02-19T07:41:43.386Z,50.67
2019-02-19T07:44:14.637Z,50.66
2019-02-19T07:46:45.877Z,50.55
2019-02-19T07:49:17.066Z,50.51
2019-02-19T07:51:48.259Z,50.50
2019-02-19T07:54:19.483Z,50.46
2019-02-19T07:56:50.697Z,50.54
2019-02-19T07:59:23.198Z,50.50
2019-02-19T08:01:54.388Z,50.34
2019-02-19T08:04:25.620Z,50.45
2019-02-19T08:06:56.756Z,50.32
2019-02-19T08:09:28.056Z,50.45
2019-02-19T08:11:59.277Z,50.33
2019-02-19T08:14:30.488Z,50.32
2019-02-19T08:17:01.742Z,50.29
2019-02-19T08:19:32.933Z,50.60
2019-02-19T08:22:04.162Z,50.49
2019-02-19T08:24:35.480Z,50.37
2019-02-19T08:27:06.659Z,50.27
2019-02-19T08:29:37.866Z,50.30
2019-02-19T08:32:09.135Z,50.13
2019-02-19T08:34:40.396Z,50.31
2019-02-19T08:37:11.557Z,50.01
2019-02-19T08:39:42.762Z,49.97
2019-02-19T08:42:13.925Z,50.02
2019-02-19T08:44:45.133Z,49.94
2019-02-19T08:47:16.340Z,49.89
2019-02-19T08:49:47.524Z,49.94
2019-02-19T08:52:18.875Z,49.90
2019-02-19T08:54:50.132Z,50.02
2019-02-19T08:57:21.328Z,49.83
2019-02-19T08:59:52.525Z,49.98
2019-02-19T09:02:23.778Z,49.95
2019-02-19T09:04:54.987Z,49.99
2019-02-19T09:07:26.140Z,50.10
2019-02-19T09:09:57.384Z,50.59
2019-02-19T09:12:28.762Z,50.52
2019-02-19T09:15:00.034Z,50.86
2019-02-19T09:17:31.268Z,50.97
2019-02-19T09:20:02.571Z,50.84
2019-02-19T09:22:33.978Z,51.30
2019-02-19T09:25:05.266Z,51.38
2019-02-19T09:27:36.518Z,51.55
2019-02-19T09:30:09.360Z,51.48
2019-02-19T09:32:40.570Z,51.31
2019-02-19T09:35:12.151Z,51.84
2019-02-19T09:37:43.265Z,51.77
2019-02-19T09:40:14.517Z,52.03
2019-02-19T09:42:45.704Z,51.71
2019-02-19T09:45:16.881Z,51.61
2019-02-19T09:47:48.082Z,52.07
2019-02-19T09:50:20.413Z,51.77
2019-02-19T09:52:59.751Z,51.75
2019-02-19T09:55:24.640Z,51.86
2019-02-19T09:57:55.913Z,51.83
2019-02-19T10:00:27.146Z,51.98
2019-02-19T10:02:58.366Z,52.01
2019-02-19T10:05:29.621Z,52.02
2019-02-19T10:08:00.776Z,51.91
2019-02-19T10:10:32.033Z,52.05
2019-02-19T10:13:04.201Z,52.17
2019-02-19T10:15:35.421Z,52.23
2019-02-19T10:18:10.308Z,52.21
2019-02-19T10:20:39.487Z,52.33
2019-02-19T10:23:10.778Z,52.26
2019-02-19T10:25:42.106Z,52.22
2019-02-19T10:31:16.727Z,52.16
2019-02-19T10:33:48.181Z,52.09
2019-02-19T10:36:19.437Z,52.09
2019-02-19T10:38:50.651Z,52.17
2019-02-19T10:41:21.929Z,52.02
2019-02-19T10:43:53.225Z,51.98
2019-02-19T10:46:24.552Z,52.02
2019-02-19T10:48:55.871Z,51.89
2019-02-19T10:51:28.856Z,51.93
2019-02-19T10:54:00.347Z,51.96
2019-02-19T10:56:31.624Z,51.86
2019-02-19T10:59:02.828Z,51.93
2019-02-19T11:01:33.995Z,51.86
2019-02-19T11:04:05.180Z,51.76
2019-02-19T11:06:36.620Z,51.67
2019-02-19T11:09:07.866Z,51.59
2019-02-19T11:11:39.169Z,51.54
2019-02-19T11:14:10.425Z,51.67
2019-02-19T11:16:41.896Z,51.94
2019-02-19T11:19:13.140Z,51.71
2019-02-19T11:21:44.387Z,51.63
2019-02-19T11:24:15.768Z,51.58
2019-02-19T11:26:47.007Z,51.53
2019-02-19T11:29:18.304Z,51.47
2019-02-19T11:31:49.614Z,51.56
2019-02-19T11:34:20.888Z,51.61
2019-02-19T11:36:52.102Z,51.67
2019-02-19T11:39:23.318Z,51.63
2019-02-19T11:41:54.785Z,51.58
2019-02-19T11:44:26.017Z,51.55
2019-02-19T11:46:57.202Z,51.36
2019-02-19T11:49:28.530Z,51.16
2019-02-19T11:51:59.792Z,50.99
2019-02-19T11:54:31.043Z,50.82
2019-02-19T11:57:02.224Z,50.68
2019-02-19T11:59:34.420Z,50.60
2019-02-19T12:02:09.907Z,50.52
2019-02-19T12:04:41.147Z,50.34
2019-02-19T12:07:12.386Z,50.32
2019-02-19T12:09:43.612Z,50.28
2019-02-19T12:12:15.122Z,50.21
2019-02-19T12:14:46.343Z,50.11
2019-02-19T12:17:17.529Z,50.05
2019-02-19T12:19:48.729Z,50.02
2019-02-19T12:22:19.869Z,49.96
2019-02-19T12:24:51.155Z,49.90
2019-02-19T12:27:22.432Z,49.37
2019-02-19T12:29:53.640Z,49.64
2019-02-19T12:32:24.933Z,49.56
2019-02-19T12:34:56.156Z,49.46
2019-02-19T12:37:27.378Z,49.27
2019-02-19T12:39:58.749Z,48.79
2019-02-19T12:42:30.090Z,48.74
2019-02-19T12:45:01.522Z,49.04
2019-02-19T12:47:33.073Z,48.90
2019-02-19T12:50:04.556Z,48.57
2019-02-19T12:52:35.759Z,48.38
2019-02-19T12:55:07.720Z,48.27
2019-02-19T12:57:38.903Z,48.11
2019-02-19T13:00:12.742Z,48.19
2019-02-19T13:02:44.253Z,48.00
2019-02-19T13:05:15.570Z,47.77
2019-02-19T13:07:47.838Z,47.68
2019-02-19T13:10:19.125Z,47.24
2019-02-19T13:12:50.368Z,46.98
2019-02-19T13:15:21.563Z,46.74
2019-02-19T13:17:52.897Z,46.46
2019-02-19T13:20:24.138Z,45.82
2019-02-19T13:22:55.328Z,44.97
2019-02-19T13:25:26.625Z,45.81
2019-02-19T13:27:57.782Z,46.05
2019-02-19T13:30:29.074Z,46.16
2019-02-19T13:33:00.247Z,46.35
2019-02-19T13:35:31.466Z,46.21
2019-02-19T13:38:02.639Z,45.94
2019-02-19T13:40:33.872Z,45.43
2019-02-19T13:43:05.098Z,44.92
2019-02-19T13:45:36.346Z,44.89
2019-02-19T13:48:07.610Z,44.83
2019-02-19T13:50:38.798Z,45.01
2019-02-19T13:53:23.615Z,45.28
2019-02-19T13:55:56.742Z,45.20
2019-02-19T13:58:27.981Z,44.71
2019-02-19T14:00:59.202Z,44.39
2019-02-19T14:03:30.381Z,44.20
2019-02-19T14:06:02.683Z,43.64
2019-02-19T14:08:33.843Z,43.37
2019-02-19T14:11:05.013Z,43.03
2019-02-19T14:13:37.980Z,43.56
2019-02-19T14:16:16.678Z,43.82
2019-02-19T14:18:55.682Z,43.53
2019-02-19T14:21:38.114Z,43.26
2019-02-19T14:24:27.357Z,43.34
2019-02-19T14:27:08.036Z,43.56
2019-02-19T14:30:07.295Z,43.79
2019-02-19T14:33:00.475Z,43.99
2019-02-19T14:35:56.886Z,43.72
2019-02-19T14:38:45.830Z,43.31
2019-02-19T14:41:34.957Z,43.44
2019-02-19T14:44:23.936Z,43.43
2019-02-19T14:47:29.425Z,43.44
2019-02-19T14:50:07.068Z,43.54
2019-02-19T14:52:52.045Z,43.70
2019-02-19T14:55:51.576Z,43.88
2019-02-19T14:58:47.859Z,44.03
2019-02-19T15:01:33.984Z,44.17
2019-02-19T15:04:33.288Z,44.22
2019-02-19T15:07:29.433Z,44.29
2019-02-19T15:10:31.829Z,44.39
2019-02-19T15:13:18.855Z,44.47
2019-02-19T15:15:59.345Z,44.53
2019-02-19T15:18:52.433Z,44.62
2019-02-19T15:21:35.302Z,44.75
2019-02-19T15:24:43.735Z,44.84
2019-02-19T15:27:46.143Z,44.96
2019-02-19T15:30:36.421Z,45.00
2019-02-19T15:33:25.586Z,44.94
2019-02-19T15:36:25.405Z,44.97
2019-02-19T15:39:34.054Z,45.00
2019-02-19T15:42:24.021Z,45.12
2019-02-19T15:45:13.157Z,45.26
2019-02-19T15:48:02.203Z,45.30
2019-02-19T15:50:51.238Z,45.34
2019-02-19T15:53:28.396Z,45.46
2019-02-19T15:56:21.324Z,45.56
2019-02-19T15:59:07.643Z,45.63
2019-02-19T16:01:46.513Z,45.82
2019-02-19T16:04:24.236Z,45.92
2019-02-19T16:07:17.397Z,46.15
2019-02-19T16:10:03.843Z,46.22
2019-02-19T16:12:52.338Z,46.44
2019-02-19T16:15:57.508Z,46.39
2019-02-19T16:18:34.435Z,46.59
2019-02-19T16:21:23.487Z,46.64
2019-02-19T16:24:14.275Z,46.58
2019-02-19T16:27:13.848Z,46.80
2019-02-19T16:30:12.895Z,46.71
2019-02-19T16:33:03.318Z,46.79
2019-02-19T16:35:53.836Z,47.01
2019-02-19T16:38:36.456Z,46.83
2019-02-19T16:41:19.256Z,46.92
2019-02-19T16:44:01.442Z,47.05
2019-02-19T16:46:50.391Z,47.08
2019-02-19T16:49:46.485Z,47.00
2019-02-19T16:52:24.811Z,47.11
2019-02-19T16:55:18.158Z,47.18
2019-02-19T16:57:57.501Z,47.18
2019-02-19T17:00:34.497Z,47.16
2019-02-19T17:03:23.680Z,47.27
2019-02-19T17:06:16.673Z,47.31
2019-02-19T17:09:06.808Z,47.55
2019-02-19T17:11:49.158Z,47.72
2019-02-19T17:14:48.252Z,47.65
2019-02-19T17:17:53.864Z,47.53
2019-02-19T17:20:40.656Z,47.77
2019-02-19T17:23:20.333Z,47.92
2019-02-19T17:25:59.479Z,47.79
2019-02-19T17:32:00.208Z,47.78
2019-02-19T17:34:46.503Z,47.89
2019-02-19T17:37:35.607Z,47.82
2019-02-19T17:40:13.336Z,47.81
2019-02-19T17:42:51.662Z,47.74
2019-02-19T17:45:57.267Z,47.62
2019-02-19T17:48:53.385Z,47.65
2019-02-19T17:51:34.769Z,47.49
2019-02-19T17:54:28.150Z,47.39
2019-02-19T17:57:33.782Z,47.31
2019-02-19T18:00:28.364Z,47.24
2019-02-19T18:03:17.617Z,47.21
2019-02-19T18:06:13.646Z,47.23
2019-02-19T18:09:00.394Z,47.15
2019-02-19T18:11:53.918Z,47.13
2019-02-19T18:14:56.105Z,47.13
2019-02-19T18:17:32.494Z,47.14
2019-02-19T18:20:04.967Z,47.07
2019-02-19T18:22:36.684Z,47.06
2019-02-19T18:25:08.177Z,47.09
2019-02-19T18:27:39.750Z,47.07
2019-02-19T18:30:11.042Z,47.08
2019-02-19T18:32:42.350Z,47.08
2019-02-19T18:35:13.866Z,47.11
2019-02-19T18:37:45.241Z,47.18
2019-02-19T18:40:16.822Z,47.34
2019-02-19T18:42:48.245Z,47.50
2019-02-19T18:45:19.766Z,47.75
2019-02-19T18:47:51.029Z,47.81
2019-02-19T18:50:22.144Z,47.72
2019-02-19T18:52:53.331Z,47.91
2019-02-19T18:55:24.635Z,47.91
2019-02-19T18:57:55.898Z,47.89
2019-02-19T19:00:27.005Z,47.90
2019-02-19T19:02:58.165Z,47.86
2019-02-19T19:05:29.311Z,47.79
2019-02-19T19:08:00.430Z,47.83
2019-02-19T19:10:31.729Z,47.80
2019-02-19T19:13:03.203Z,47.86
2019-02-19T19:15:34.563Z,48.05
2019-02-19T19:18:05.748Z,48.08
2019-02-19T19:20:36.994Z,48.19
2019-02-19T19:23:09.605Z,48.18
2019-02-19T19:25:40.865Z,48.53
2019-02-19T19:28:12.088Z,48.93
2019-02-19T19:30:43.345Z,48.96
2019-02-19T19:33:14.597Z,49.29
2019-02-19T19:35:45.698Z,50.39
2019-02-19T19:38:16.999Z,50.65
2019-02-19T19:40:48.189Z,52.12
2019-02-19T19:43:19.522Z,53.14
2019-02-19T19:45:50.821Z,53.99
2019-02-19T19:48:21.995Z,54.26
2019-02-19T19:50:53.455Z,53.97
2019-02-19T19:53:24.736Z,54.22
2019-02-19T19:56:00.640Z,54.12
2019-02-19T19:58:32.570Z,54.38
2019-02-19T20:01:03.776Z,54.84
2019-02-19T20:03:35.166Z,55.05
2019-02-19T20:06:07.419Z,55.17
2019-02-19T20:08:39.878Z,55.07
2019-02-19T20:11:11.686Z,54.80
2019-02-19T20:13:42.946Z,55.27
2019-02-19T20:16:15.573Z,55.28
2019-02-19T20:18:46.845Z,55.10
2019-02-19T20:21:26.477Z,55.66
2019-02-19T20:23:51.098Z,56.24
2019-02-19T20:26:22.309Z,55.45
2019-02-19T20:28:53.521Z,54.98
2019-02-19T20:31:24.670Z,54.80
2019-02-19T20:33:56.718Z,54.95
2019-02-19T20:36:28.264Z,54.88
2019-02-19T20:38:59.615Z,54.90
2019-02-19T20:41:31.589Z,55.21
2019-02-19T20:44:02.947Z,55.29
2019-02-19T20:46:34.331Z,55.41
2019-02-19T20:49:05.732Z,55.37
2019-02-19T20:51:38.461Z,55.26
2019-02-19T20:54:09.902Z,55.73
2019-02-19T20:56:41.243Z,55.13
2019-02-19T20:59:12.820Z,55.24
2019-02-19T21:01:44.425Z,55.41
2019-02-19T21:04:17.204Z,55.74
2019-02-19T21:06:48.811Z,55.69
2019-02-19T21:09:22.090Z,55.92
2019-02-19T21:11:54.777Z,56.18
2019-02-19T21:14:26.396Z,55.95
2019-02-19T21:16:57.682Z,55.77
2019-02-19T21:19:28.985Z,55.90
2019-02-19T21:22:01.044Z,55.66
2019-02-19T21:24:33.872Z,56.01
2019-02-19T21:27:07.131Z,55.76
2019-02-19T21:29:38.651Z,55.86
2019-02-19T21:32:09.966Z,56.75
2019-02-19T21:34:41.194Z,57.07
2019-02-19T21:37:12.657Z,57.27
2019-02-19T21:39:43.981Z,57.68
2019-02-19T21:42:15.182Z,57.46
2019-02-19T21:44:46.488Z,57.85
2019-02-19T21:47:18.730Z,57.40
2019-02-19T21:49:53.256Z,57.18
2019-02-19T21:52:24.814Z,57.54
2019-02-19T21:54:56.044Z,57.50
2019-02-19T21:57:27.339Z,58.05
2019-02-19T21:59:58.588Z,57.96
2019-02-19T22:02:29.728Z,58.49
2019-02-19T22:05:01.068Z,58.68
2019-02-19T22:07:32.601Z,58.34
2019-02-19T22:10:03.979Z,58.46
2019-02-19T22:12:36.440Z,58.40
2019-02-19T22:15:07.730Z,58.39
2019-02-19T22:17:38.933Z,58.40
2019-02-19T22:20:19.512Z,58.30
2019-02-19T22:22:50.629Z,58.53
2019-02-19T22:25:21.823Z,58.47
2019-02-19T22:27:53.052Z,58.82
2019-02-19T22:30:24.259Z,58.64
2019-02-19T22:32:55.439Z,57.98
2019-02-19T22:35:26.713Z,57.75
2019-02-19T22:37:57.905Z,58.13
2019-02-19T22:40:29.033Z,57.82
2019-02-19T22:43:01.254Z,57.93
2019-02-19T22:45:33.155Z,58.02
2019-02-19T22:48:04.534Z,57.75
2019-02-19T22:50:35.759Z,57.56
2019-02-19T22:53:25.960Z,57.18
2019-02-19T22:56:02.550Z,56.96
2019-02-19T22:58:33.770Z,57.01
2019-02-19T23:01:14.752Z,56.77
2019-02-19T23:03:46.080Z,56.90
2019-02-19T23:06:17.264Z,56.66
2019-02-19T23:08:48.459Z,56.80
2019-02-19T23:11:19.652Z,56.97
2019-02-19T23:13:50.890Z,56.81
2019-02-19T23:16:22.141Z,56.51
2019-02-19T23:18:53.305Z,56.53
2019-02-19T23:21:24.479Z,56.48
2019-02-19T23:23:55.702Z,56.47
2019-02-19T23:26:27.025Z,56.60
2019-02-19T23:28:58.245Z,56.90
2019-02-19T23:31:29.451Z,56.98
2019-02-19T23:34:00.655Z,56.82
2019-02-19T23:36:39.443Z,56.84
2019-02-19T23:39:10.700Z,56.94
2019-02-19T23:41:42.162Z,56.78
2019-02-19T23:44:13.339Z,56.88
2019-02-19T23:46:44.524Z,56.83
2019-02-19T23:49:15.742Z,56.81
2019-02-19T23:51:46.907Z,56.57
2019-02-19T23:54:18.123Z,56.64
2019-02-19T23:56:49.294Z,57.04
2019-02-19T23:59:20.562Z,57.53
